Alamogordo, New Mexico
Current Conditions -  °F | °C
As of 3:15 PM on Tuesday 25 Nov 2014 (Local Time) from KALM Reporting Station
Clear Clear  
Wind Chill: 52°   Ceiling: Unl
Heat Index: 52°   Visibility: 10mi
Dew Point:   Wind: 6mph
Humidity: 14%   Direction: 40°NE
Pressure: 30.3"   Gusts: NA
Location:  32.9°N, 105.96°W
Report Text: KALM 252215Z AUTO 04005KT 10SM CLR 11/M16 A3030 RMK AO2
Loading
Personal Weather Stations






























Interactive Weather Map New forecast layout! Learn more

10-Day Weather Forecast

Advertisements
Track Severe Weather on mobile